Atiramapattinam, India

8:14 PM IST on August 28, 2015 (GMT +0530)
Tiruchirappalli | | Change Station
CLOSE
Current Station
Airport
Location: Triuchirapalli,
Elevation: 289 ft
Nearby Weather Stations

Elev 289 ft 10.77 °N, 78.71 °E | Updated 34 minutes ago

Partly Cloudy
Partly Cloudy
90 °F
Feels Like 98 °F
N
8
Wind Variable Wind from South

Today
High -- | Low -- °F
--% Chance of Precip.
Yesterday
High -- | Low -- °F
Precip. -- in
6:03 AM 6:24 PM
Waxing Gibbous, 98% visible
Pressure 29.74 in
Visibility 3.7 miles
Clouds Scattered Clouds 1600 ft
Few 2200 ft
Heat Index 98 °F
Dew Point 73 °F
Humidity 59%
Rainfall 0.00 in
Snow Depth Not available.
UV 0 out of 12
Pollen Not available.
Air Quality Not available.
Flu Activity Not available.
METAR VOTR 281410Z 18007KT 6000 SCT016 FEW022TCU 32/23 Q1007 NOSIG
Pressure 29.74 in
Visibility 3.7 miles
Clouds Scattered Clouds 1600 ft
Few 2200 ft
Heat Index 98 °F
Dew Point 73 °F
Humidity 59%
Rainfall 0.00 in
Snow Depth Not available.
UV 0 out of 12
Pollen Not available.
Air Quality Not available.
Flu Activity Not available.
METAR VOTR 281410Z 18007KT 6000 SCT016 FEW022TCU 32/23 Q1007 NOSIG

10-Day Weather Forecast

×

Almanac

Astronomy

Aug. 28, 2015 Rise Set
Actual Time
Civil Twilight
Nautical Twilight
Astronomical Twilight
Moon
Length of Visible Light
Length of Day
Tomorrow will be .
, % of the Moon is Illuminated

Today's Extremes

Country Highs Country Lows

Community

WunderPhotos

Upload Photos

1,850,387 photos uploaded!

WunderBlogs® & News

Nearby

Air Quality

  Air Quality AQ Index Pollutant
Not available.

Snow Depth

Station Depth Elevation

Earthquake Activity

City Distance Mag. Time & Date
Minimum magnitude displayed is 2.5.

Coastal Water Temperatures

Place Temperature

Stations

Nearby Weather Stations

Station Location Temp. Windchill Dew Point Humidity Wind Precip. Elev Updated Type